X  CloseMetar Aviation Weather Data     KLNK Lincoln

Temperature

77°F Temperature

68°F Dewpoint

74% Humidity



Wind

 7 MPH

11 KM/H

 3 M/S

 6 KTS



120°
East South
East
Current Conditions

Clear Clear
Pressure 1013.92 (hPa) - 29.94 (in)
Visibility 10 (mi) - 16.1 (km)
Airport
Airport-code KLNK

Location Lincoln 7 (mi)

Metar:
KLNK 060854Z AUTO 12006KT 10SM CLR 25/20 A2994 RMK AO2 SLP123 T02500200 55001

Time: 06-06-2020 3:54